Milbank, SD

11:14 PM CST on November 22, 2014 (GMT -0600)
NonFedAWOS MILBANK SD US SUPERAWOS | Change Station
CLOSE
Current Station
Personal Weather Station
Location: Milbank, SD
Elevation: 1116 ft
Nearby Weather Stations

Elev 1116 ft 45.23 °N, 96.57 °W | Updated 39 minutes ago

Mostly Cloudy
Mostly Cloudy
30 °F
Feels Like 30 °F
N
Wind Variable Wind from North
Gusts 0.0 mph

Today
High -- | Low -- °F
--% Chance of Precip.
Yesterday
High -- | Low -- °F
Precip. -- in
7:33 AM 4:50 PM
New Moon, 1% visible
Pressure 29.37 in
Visibility 5.0 miles
Clouds Clear
Windchill 30 °F
Dew Point 28 °F
Humidity 93%
Rainfall -999.00 in
Snow Depth Not available.
UV 0 out of 12
Pollen .10 out of 12
Air Quality Not available.
Flu Activity Not available.
METAR KVVV 230500Z AUTO 13007KT 5SM BR CLR 01/M01 A2937 RMK AO2

More Conditions Fewer Conditions

Pressure 29.37 in
Visibility 5.0 miles
Clouds Clear
Windchill 30 °F
Dew Point 28 °F
Humidity 93%
Rainfall -999.00 in
Snow Depth Not available.
UV 0 out of 12
Pollen .10 out of 12
Air Quality Not available.
Flu Activity Not available.
METAR KVVV 230500Z AUTO 13007KT 5SM BR CLR 01/M01 A2937 RMK AO2

More Conditions Fewer Conditions

10-Day Weather Forecast

Almanac

Astronomy

Nov. 22, 2014 Rise Set
Actual Time
Civil Twilight
Nautical Twilight
Astronomical Twilight
Moon
Length of Visible Light
Length of Day
Tomorrow will be .
, % of the Moon is Illuminated

Today's Extremes

State Highs State Lows

Community

WunderPhotos

Upload Photos

1,773,010 photos uploaded!

WunderBlogs® & News

Nearby

Air Quality

  Air Quality AQ Index Pollutant
Not available.

Snow Depth

Station Depth Elevation

Earthquake Activity

City Distance Mag. Time & Date
Minimum magnitude displayed is 2.5.

Coastal Water Temperatures

Place Temperature

Nearby Weather Stations